sensor_id;sensor_type;location;lat;lon;timestamp;pressure;altitude;pressure_sealevel;temperature;humidity
7168;BME280;3625;51.762;14.320;2022-08-25T00:00:19;101131.56;;;19.01;100.00
7168;BME280;3625;51.762;14.320;2022-08-25T00:02:49;101133.16;;;19.05;100.00
7168;BME280;3625;51.762;14.320;2022-08-25T00:05:29;101135.84;;;19.05;100.00
7168;BME280;3625;51.762;14.320;2022-08-25T00:08:00;101136.94;;;19.01;100.00
7168;BME280;3625;51.762;14.320;2022-08-25T00:10:37;101135.13;;;19.01;100.00
7168;BME280;3625;51.762;14.320;2022-08-25T00:13:36;101138.69;;;19.02;100.00
7168;BME280;3625;51.762;14.320;2022-08-25T00:16:09;101135.38;;;18.95;100.00
7168;BME280;3625;51.762;14.320;2022-08-25T00:18:40;101137.13;;;18.96;100.00
7168;BME280;3625;51.762;14.320;2022-08-25T00:21:16;101131.06;;;18.93;100.00
7168;BME280;3625;51.762;14.320;2022-08-25T00:23:49;101140.03;;;18.92;100.00
7168;BME280;3625;51.762;14.320;2022-08-25T00:26:20;101126.06;;;18.85;100.00
7168;BME280;3625;51.762;14.320;2022-08-25T00:28:51;101131.31;;;18.87;100.00
7168;BME280;3625;51.762;14.320;2022-08-25T00:31:28;101122.50;;;18.84;100.00
7168;BME280;3625;51.762;14.320;2022-08-25T00:34:10;101128.72;;;18.85;100.00
7168;BME280;3625;51.762;14.320;2022-08-25T00:36:41;101143.06;;;18.84;100.00
7168;BME280;3625;51.762;14.320;2022-08-25T00:39:12;101134.16;;;18.83;100.00
7168;BME280;3625;51.762;14.320;2022-08-25T00:41:44;101136.16;;;18.78;100.00
7168;BME280;3625;51.762;14.320;2022-08-25T00:44:15;100975.94;;;17.87;100.00
7168;BME280;3625;51.762;14.320;2022-08-25T00:46:49;101142.81;;;18.70;100.00
7168;BME280;3625;51.762;14.320;2022-08-25T00:49:24;101135.84;;;18.66;100.00
7168;BME280;3625;51.762;14.320;2022-08-25T00:51:59;100878.03;;;17.00;100.00
7168;BME280;3625;51.762;14.320;2022-08-25T00:54:34;101128.16;;;18.58;100.00
7168;BME280;3625;51.762;14.320;2022-08-25T00:57:07;101135.28;;;18.59;100.00
7168;BME280;3625;51.762;14.320;2022-08-25T00:59:37;101133.63;;;18.55;100.00
7168;BME280;3625;51.762;14.320;2022-08-25T01:02:09;101134.63;;;18.53;100.00
7168;BME280;3625;51.762;14.320;2022-08-25T01:04:40;101133.75;;;18.52;100.00
7168;BME280;3625;51.762;14.320;2022-08-25T01:07:19;101045.56;;;18.07;100.00
7168;BME280;3625;51.762;14.320;2022-08-25T01:09:51;101094.69;;;18.26;100.00
7168;BME280;3625;51.762;14.320;2022-08-25T01:12:21;101107.63;;;18.37;100.00
7168;BME280;3625;51.762;14.320;2022-08-25T01:14:51;101122.31;;;18.48;100.00
7168;BME280;3625;51.762;14.320;2022-08-25T01:17:24;101113.56;;;18.43;100.00
7168;BME280;3625;51.762;14.320;2022-08-25T01:19:56;101118.22;;;18.40;100.00
7168;BME280;3625;51.762;14.320;2022-08-25T01:22:26;101113.09;;;18.34;100.00
7168;BME280;3625;51.762;14.320;2022-08-25T01:25:01;101116.81;;;18.31;100.00
7168;BME280;3625;51.762;14.320;2022-08-25T01:27:31;101111.41;;;18.33;100.00
7168;BME280;3625;51.762;14.320;2022-08-25T01:30:00;101108.09;;;18.26;100.00
7168;BME280;3625;51.762;14.320;2022-08-25T01:32:33;101105.50;;;18.25;100.00
7168;BME280;3625;51.762;14.320;2022-08-25T01:35:03;101106.50;;;18.22;100.00
7168;BME280;3625;51.762;14.320;2022-08-25T01:37:34;101108.41;;;18.19;100.00
7168;BME280;3625;51.762;14.320;2022-08-25T01:40:05;101110.56;;;18.10;100.00
7168;BME280;3625;51.762;14.320;2022-08-25T01:42:46;101114.38;;;18.05;100.00
7168;BME280;3625;51.762;14.320;2022-08-25T01:45:20;101112.03;;;17.97;100.00
7168;BME280;3625;51.762;14.320;2022-08-25T01:47:49;101106.91;;;17.91;100.00
7168;BME280;3625;51.762;14.320;2022-08-25T01:50:18;101109.75;;;17.88;100.00
7168;BME280;3625;51.762;14.320;2022-08-25T01:52:55;101106.25;;;17.86;100.00
7168;BME280;3625;51.762;14.320;2022-08-25T01:55:26;101108.06;;;17.86;100.00
7168;BME280;3625;51.762;14.320;2022-08-25T01:57:58;101108.81;;;17.89;100.00
7168;BME280;3625;51.762;14.320;2022-08-25T02:00:27;101103.38;;;17.91;100.00
7168;BME280;3625;51.762;14.320;2022-08-25T02:02:56;101045.63;;;17.42;100.00
7168;BME280;3625;51.762;14.320;2022-08-25T02:05:25;101104.88;;;17.76;100.00
7168;BME280;3625;51.762;14.320;2022-08-25T02:07:56;101110.44;;;17.71;100.00
7168;BME280;3625;51.762;14.320;2022-08-25T02:10:25;101109.75;;;17.66;100.00
7168;BME280;3625;51.762;14.320;2022-08-25T02:12:54;101113.50;;;17.62;100.00
7168;BME280;3625;51.762;14.320;2022-08-25T02:15:22;101117.97;;;17.62;100.00
7168;BME280;3625;51.762;14.320;2022-08-25T02:17:51;101109.94;;;17.62;100.00
7168;BME280;3625;51.762;14.320;2022-08-25T02:20:21;101112.66;;;17.60;100.00
7168;BME280;3625;51.762;14.320;2022-08-25T02:22:50;101106.47;;;17.58;100.00
7168;BME280;3625;51.762;14.320;2022-08-25T02:25:25;101103.88;;;17.57;100.00
7168;BME280;3625;51.762;14.320;2022-08-25T02:27:54;101099.44;;;17.56;100.00
7168;BME280;3625;51.762;14.320;2022-08-25T02:30:23;101096.03;;;17.52;100.00
7168;BME280;3625;51.762;14.320;2022-08-25T02:32:52;101097.03;;;17.50;100.00
7168;BME280;3625;51.762;14.320;2022-08-25T02:35:23;101087.81;;;17.57;100.00
7168;BME280;3625;51.762;14.320;2022-08-25T02:37:52;101093.75;;;17.65;100.00
7168;BME280;3625;51.762;14.320;2022-08-25T02:40:23;101094.03;;;17.57;100.00
7168;BME280;3625;51.762;14.320;2022-08-25T02:42:52;101102.38;;;17.50;100.00
7168;BME280;3625;51.762;14.320;2022-08-25T02:45:22;101101.66;;;17.46;100.00
7168;BME280;3625;51.762;14.320;2022-08-25T02:47:51;101095.53;;;17.43;100.00
7168;BME280;3625;51.762;14.320;2022-08-25T02:50:20;101099.25;;;17.39;100.00
7168;BME280;3625;51.762;14.320;2022-08-25T02:52:49;101099.25;;;17.39;100.00
7168;BME280;3625;51.762;14.320;2022-08-25T02:55:19;101046.94;;;17.10;100.00
7168;BME280;3625;51.762;14.320;2022-08-25T02:57:49;101089.50;;;17.38;100.00
7168;BME280;3625;51.762;14.320;2022-08-25T03:00:18;101086.94;;;17.34;100.00
7168;BME280;3625;51.762;14.320;2022-08-25T03:02:49;101102.75;;;17.41;100.00
7168;BME280;3625;51.762;14.320;2022-08-25T03:05:18;101058.94;;;17.21;100.00
7168;BME280;3625;51.762;14.320;2022-08-25T03:07:49;101089.50;;;17.38;100.00
7168;BME280;3625;51.762;14.320;2022-08-25T03:10:22;101085.19;;;17.33;100.00
7168;BME280;3625;51.762;14.320;2022-08-25T03:12:53;101091.53;;;17.31;100.00
7168;BME280;3625;51.762;14.320;2022-08-25T03:15:22;101087.22;;;17.28;100.00
7168;BME280;3625;51.762;14.320;2022-08-25T03:17:52;101085.50;;;17.26;100.00
7168;BME280;3625;51.762;14.320;2022-08-25T03:20:26;101086.44;;;17.25;100.00
7168;BME280;3625;51.762;14.320;2022-08-25T03:22:56;101079.28;;;17.25;100.00
7168;BME280;3625;51.762;14.320;2022-08-25T03:25:25;101085.50;;;17.26;100.00
7168;BME280;3625;51.762;14.320;2022-08-25T03:28:12;101073.13;;;17.23;100.00
7168;BME280;3625;51.762;14.320;2022-08-25T03:30:42;101077.75;;;17.20;100.00
7168;BME280;3625;51.762;14.320;2022-08-25T03:33:11;101073.13;;;17.23;100.00
7168;BME280;3625;51.762;14.320;2022-08-25T03:35:40;101071.88;;;17.32;100.00
7168;BME280;3625;51.762;14.320;2022-08-25T03:38:09;101071.72;;;17.37;100.00
7168;BME280;3625;51.762;14.320;2022-08-25T03:40:38;101073.56;;;17.34;100.00
7168;BME280;3625;51.762;14.320;2022-08-25T03:43:07;101072.81;;;17.31;100.00
7168;BME280;3625;51.762;14.320;2022-08-25T03:45:41;101076.41;;;17.30;100.00
7168;BME280;3625;51.762;14.320;2022-08-25T03:48:11;101078.47;;;17.23;100.00
7168;BME280;3625;51.762;14.320;2022-08-25T03:50:44;100961.06;;;16.50;100.00
7168;BME280;3625;51.762;14.320;2022-08-25T03:53:18;101076.97;;;17.16;100.00
7168;BME280;3625;51.762;14.320;2022-08-25T03:55:47;101079.75;;;17.13;100.00
7168;BME280;3625;51.762;14.320;2022-08-25T03:58:16;101082.44;;;17.13;100.00
7168;BME280;3625;51.762;14.320;2022-08-25T04:00:49;101075.63;;;17.28;100.00
7168;BME280;3625;51.762;14.320;2022-08-25T04:03:22;101085.03;;;17.38;100.00
7168;BME280;3625;51.762;14.320;2022-08-25T04:05:53;101087.41;;;17.46;100.00
7168;BME280;3625;51.762;14.320;2022-08-25T04:08:23;101083.69;;;17.48;100.00
7168;BME280;3625;51.762;14.320;2022-08-25T04:10:52;101080.97;;;17.50;100.00
7168;BME280;3625;51.762;14.320;2022-08-25T04:13:21;101090.81;;;17.49;100.00
7168;BME280;3625;51.762;14.320;2022-08-25T04:15:52;101088.06;;;17.51;100.00
7168;BME280;3625;51.762;14.320;2022-08-25T04:18:21;101083.69;;;17.48;100.00
7168;BME280;3625;51.762;14.320;2022-08-25T04:21:02;101076.59;;;17.47;100.00
7168;BME280;3625;51.762;14.320;2022-08-25T04:23:32;101079.88;;;17.55;100.00
7168;BME280;3625;51.762;14.320;2022-08-25T04:26:01;101079.00;;;17.55;100.00
7168;BME280;3625;51.762;14.320;2022-08-25T04:28:30;101078.03;;;17.56;100.00
7168;BME280;3625;51.762;14.320;2022-08-25T04:31:00;101082.47;;;17.57;100.00
7168;BME280;3625;51.762;14.320;2022-08-25T04:33:29;101084.19;;;17.58;100.00
7168;BME280;3625;51.762;14.320;2022-08-25T04:35:59;101083.34;;;17.57;100.00
7168;BME280;3625;51.762;14.320;2022-08-25T04:38:29;101079.72;;;17.58;100.00
7168;BME280;3625;51.762;14.320;2022-08-25T04:41:00;101078.75;;;17.61;100.00
7168;BME280;3625;51.762;14.320;2022-08-25T04:47:37;101088.16;;;17.71;100.00
7168;BME280;3625;51.762;14.320;2022-08-25T04:50:07;101083.75;;;17.70;100.00
7168;BME280;3625;51.762;14.320;2022-08-25T04:52:38;101092.50;;;17.73;100.00
7168;BME280;3625;51.762;14.320;2022-08-25T04:55:10;101087.97;;;17.76;100.00
7168;BME280;3625;51.762;14.320;2022-08-25T04:57:39;101090.47;;;17.80;100.00
7168;BME280;3625;51.762;14.320;2022-08-25T05:00:09;101089.38;;;17.84;100.00
7168;BME280;3625;51.762;14.320;2022-08-25T05:02:40;101095.28;;;17.92;100.00
7168;BME280;3625;51.762;14.320;2022-08-25T05:05:12;101094.16;;;17.98;100.00
7168;BME280;3625;51.762;14.320;2022-08-25T05:07:41;101092.03;;;18.06;100.00
7168;BME280;3625;51.762;14.320;2022-08-25T05:10:10;101048.22;;;17.87;100.00
7168;BME280;3625;51.762;14.320;2022-08-25T05:12:41;101098.31;;;18.25;100.00
7168;BME280;3625;51.762;14.320;2022-08-25T05:15:29;100997.00;;;17.74;100.00
7168;BME280;3625;51.762;14.320;2022-08-25T05:18:22;101096.91;;;18.37;100.00
7168;BME280;3625;51.762;14.320;2022-08-25T05:21:02;101105.69;;;18.40;100.00
7168;BME280;3625;51.762;14.320;2022-08-25T05:23:31;101106.22;;;18.48;100.00
7168;BME280;3625;51.762;14.320;2022-08-25T05:26:03;101102.22;;;18.59;100.00
7168;BME280;3625;51.762;14.320;2022-08-25T05:28:33;101101.94;;;18.65;100.00
7168;BME280;3625;51.762;14.320;2022-08-25T05:31:03;101047.47;;;18.44;100.00
7168;BME280;3625;51.762;14.320;2022-08-25T05:33:35;101099.44;;;18.80;100.00
7168;BME280;3625;51.762;14.320;2022-08-25T05:36:05;101094.59;;;18.89;100.00
7168;BME280;3625;51.762;14.320;2022-08-25T05:38:38;101102.84;;;19.03;100.00
7168;BME280;3625;51.762;14.320;2022-08-25T05:41:10;101106.47;;;19.20;100.00
7168;BME280;3625;51.762;14.320;2022-08-25T05:43:44;101084.06;;;19.40;100.00
7168;BME280;3625;51.762;14.320;2022-08-25T05:46:16;101099.34;;;19.76;100.00
7168;BME280;3625;51.762;14.320;2022-08-25T05:48:52;101028.22;;;19.48;100.00
7168;BME280;3625;51.762;14.320;2022-08-25T05:51:21;101095.72;;;19.94;100.00
7168;BME280;3625;51.762;14.320;2022-08-25T05:53:50;101087.53;;;19.97;100.00
7168;BME280;3625;51.762;14.320;2022-08-25T05:56:19;101086.78;;;19.93;100.00
7168;BME280;3625;51.762;14.320;2022-08-25T05:58:49;101008.84;;;19.42;100.00
7168;BME280;3625;51.762;14.320;2022-08-25T06:01:24;101088.06;;;19.86;100.00
7168;BME280;3625;51.762;14.320;2022-08-25T06:04:14;101093.38;;;20.05;100.00
7168;BME280;3625;51.762;14.320;2022-08-25T06:06:42;101088.63;;;20.10;100.00
7168;BME280;3625;51.762;14.320;2022-08-25T06:09:11;101042.94;;;19.93;100.00
7168;BME280;3625;51.762;14.320;2022-08-25T06:11:42;101086.53;;;20.32;100.00
7168;BME280;3625;51.762;14.320;2022-08-25T06:14:14;101091.16;;;20.48;100.00
7168;BME280;3625;51.762;14.320;2022-08-25T06:16:43;101092.94;;;20.64;100.00
7168;BME280;3625;51.762;14.320;2022-08-25T06:19:14;101083.81;;;20.67;100.00
7168;BME280;3625;51.762;14.320;2022-08-25T06:21:43;101080.63;;;20.76;100.00
7168;BME280;3625;51.762;14.320;2022-08-25T06:24:12;101085.97;;;20.93;100.00
7168;BME280;3625;51.762;14.320;2022-08-25T06:26:44;101081.38;;;21.11;100.00
7168;BME280;3625;51.762;14.320;2022-08-25T06:29:16;101084.47;;;21.21;100.00
7168;BME280;3625;51.762;14.320;2022-08-25T06:31:46;101049.59;;;21.02;100.00
7168;BME280;3625;51.762;14.320;2022-08-25T06:34:21;101082.31;;;21.27;100.00
7168;BME280;3625;51.762;14.320;2022-08-25T06:36:57;101089.16;;;21.33;100.00
7168;BME280;3625;51.762;14.320;2022-08-25T06:39:28;101087.25;;;21.51;100.00
7168;BME280;3625;51.762;14.320;2022-08-25T06:41:59;101079.94;;;21.68;100.00
7168;BME280;3625;51.762;14.320;2022-08-25T06:44:29;101081.31;;;21.75;100.00
7168;BME280;3625;51.762;14.320;2022-08-25T06:46:58;101076.72;;;21.62;100.00
7168;BME280;3625;51.762;14.320;2022-08-25T06:49:28;101071.97;;;21.51;100.00
7168;BME280;3625;51.762;14.320;2022-08-25T06:52:03;101076.56;;;21.49;100.00
7168;BME280;3625;51.762;14.320;2022-08-25T06:54:35;101072.38;;;21.59;100.00
7168;BME280;3625;51.762;14.320;2022-08-25T06:57:05;101072.50;;;21.72;100.00
7168;BME280;3625;51.762;14.320;2022-08-25T06:59:35;101071.94;;;21.67;100.00
7168;BME280;3625;51.762;14.320;2022-08-25T07:02:08;101072.75;;;21.53;100.00
7168;BME280;3625;51.762;14.320;2022-08-25T07:04:38;101078.28;;;21.66;100.00
7168;BME280;3625;51.762;14.320;2022-08-25T07:07:09;101053.91;;;21.53;100.00
7168;BME280;3625;51.762;14.320;2022-08-25T07:09:38;101079.72;;;21.71;100.00
7168;BME280;3625;51.762;14.320;2022-08-25T07:12:07;101086.06;;;21.86;100.00
7168;BME280;3625;51.762;14.320;2022-08-25T07:14:36;101084.66;;;21.95;100.00
7168;BME280;3625;51.762;14.320;2022-08-25T07:17:20;101087.78;;;22.03;100.00
7168;BME280;3625;51.762;14.320;2022-08-25T07:19:52;101039.56;;;21.82;100.00
7168;BME280;3625;51.762;14.320;2022-08-25T07:22:24;101087.56;;;22.22;100.00
7168;BME280;3625;51.762;14.320;2022-08-25T07:24:53;101084.31;;;22.31;100.00
7168;BME280;3625;51.762;14.320;2022-08-25T07:27:22;101083.13;;;22.35;100.00
7168;BME280;3625;51.762;14.320;2022-08-25T07:29:56;101081.47;;;22.32;100.00
7168;BME280;3625;51.762;14.320;2022-08-25T07:32:25;101082.34;;;22.33;100.00
7168;BME280;3625;51.762;14.320;2022-08-25T07:34:55;101053.25;;;22.24;100.00
7168;BME280;3625;51.762;14.320;2022-08-25T07:37:48;101027.03;;;21.97;100.00
7168;BME280;3625;51.762;14.320;2022-08-25T07:40:21;101084.88;;;22.36;100.00
7168;BME280;3625;51.762;14.320;2022-08-25T07:42:54;101044.50;;;22.20;100.00
7168;BME280;3625;51.762;14.320;2022-08-25T07:45:26;100955.81;;;21.71;100.00
7168;BME280;3625;51.762;14.320;2022-08-25T07:47:58;101080.25;;;22.38;100.00
7168;BME280;3625;51.762;14.320;2022-08-25T07:50:29;101029.56;;;22.14;100.00
7168;BME280;3625;51.762;14.320;2022-08-25T07:52:59;101070.91;;;22.57;100.00
7168;BME280;3625;51.762;14.320;2022-08-25T07:55:27;101068.50;;;22.67;100.00
7168;BME280;3625;51.762;14.320;2022-08-25T07:57:57;101064.31;;;22.77;100.00
7168;BME280;3625;51.762;14.320;2022-08-25T08:00:28;101024.50;;;22.52;100.00
7168;BME280;3625;51.762;14.320;2022-08-25T08:03:03;101070.78;;;22.89;100.00
7168;BME280;3625;51.762;14.320;2022-08-25T08:05:40;101073.44;;;23.03;100.00
7168;BME280;3625;51.762;14.320;2022-08-25T08:08:09;101063.03;;;23.11;100.00
7168;BME280;3625;51.762;14.320;2022-08-25T08:10:39;101072.75;;;23.14;100.00
7168;BME280;3625;51.762;14.320;2022-08-25T08:13:35;101069.00;;;23.16;100.00
7168;BME280;3625;51.762;14.320;2022-08-25T08:16:09;101069.47;;;23.23;100.00
7168;BME280;3625;51.762;14.320;2022-08-25T08:18:42;101071.47;;;23.33;100.00
7168;BME280;3625;51.762;14.320;2022-08-25T08:21:15;100919.72;;;22.46;100.00
7168;BME280;3625;51.762;14.320;2022-08-25T08:23:46;101075.78;;;23.36;100.00
7168;BME280;3625;51.762;14.320;2022-08-25T08:26:25;101076.56;;;23.38;100.00
7168;BME280;3625;51.762;14.320;2022-08-25T08:29:16;101077.78;;;23.47;100.00
7168;BME280;3625;51.762;14.320;2022-08-25T08:31:48;101023.47;;;23.24;100.00
7168;BME280;3625;51.762;14.320;2022-08-25T08:34:18;101081.47;;;23.87;100.00
7168;BME280;3625;51.762;14.320;2022-08-25T08:36:52;101073.03;;;23.91;100.00
7168;BME280;3625;51.762;14.320;2022-08-25T08:39:24;101066.25;;;24.11;100.00
7168;BME280;3625;51.762;14.320;2022-08-25T08:42:11;101052.78;;;24.24;100.00
7168;BME280;3625;51.762;14.320;2022-08-25T08:45:03;101033.72;;;24.13;100.00
7168;BME280;3625;51.762;14.320;2022-08-25T08:47:53;100962.34;;;23.23;100.00
7168;BME280;3625;51.762;14.320;2022-08-25T08:50:33;101071.69;;;24.24;100.00
7168;BME280;3625;51.762;14.320;2022-08-25T08:53:15;101058.72;;;24.41;100.00
7168;BME280;3625;51.762;14.320;2022-08-25T08:55:52;100900.75;;;23.55;100.00
7168;BME280;3625;51.762;14.320;2022-08-25T08:58:24;101071.63;;;24.63;100.00
7168;BME280;3625;51.762;14.320;2022-08-25T09:00:57;101059.06;;;24.62;100.00
7168;BME280;3625;51.762;14.320;2022-08-25T09:03:36;101081.66;;;24.74;100.00
7168;BME280;3625;51.762;14.320;2022-08-25T09:06:11;101080.91;;;24.85;100.00
7168;BME280;3625;51.762;14.320;2022-08-25T09:08:42;101062.19;;;25.07;100.00
7168;BME280;3625;51.762;14.320;2022-08-25T09:11:20;101071.50;;;25.39;100.00
7168;BME280;3625;51.762;14.320;2022-08-25T09:14:22;101020.34;;;25.11;100.00
7168;BME280;3625;51.762;14.320;2022-08-25T09:17:02;101074.94;;;25.78;100.00
7168;BME280;3625;51.762;14.320;2022-08-25T09:22:59;101073.25;;;26.12;98.18
7168;BME280;3625;51.762;14.320;2022-08-25T09:25:40;101074.69;;;25.57;99.23
7168;BME280;3625;51.762;14.320;2022-08-25T09:28:27;101044.72;;;25.71;100.00
7168;BME280;3625;51.762;14.320;2022-08-25T09:31:01;101068.28;;;25.58;100.00
7168;BME280;3625;51.762;14.320;2022-08-25T09:33:33;101073.13;;;25.89;100.00
7168;BME280;3625;51.762;14.320;2022-08-25T09:36:03;101065.44;;;26.07;99.11
7168;BME280;3625;51.762;14.320;2022-08-25T09:38:36;101013.84;;;25.37;98.41
7168;BME280;3625;51.762;14.320;2022-08-25T09:41:07;101006.31;;;24.93;100.00
7168;BME280;3625;51.762;14.320;2022-08-25T09:43:41;101061.53;;;25.40;100.00
7168;BME280;3625;51.762;14.320;2022-08-25T09:46:14;101053.44;;;25.64;100.00
7168;BME280;3625;51.762;14.320;2022-08-25T09:48:50;101055.50;;;25.84;100.00
7168;BME280;3625;51.762;14.320;2022-08-25T09:51:26;101050.53;;;25.78;99.19
7168;BME280;3625;51.762;14.320;2022-08-25T09:54:15;101050.81;;;25.86;100.00
7168;BME280;3625;51.762;14.320;2022-08-25T09:56:55;101049.44;;;25.80;98.21
7168;BME280;3625;51.762;14.320;2022-08-25T09:59:27;100829.69;;;24.90;98.13
7168;BME280;3625;51.762;14.320;2022-08-25T10:02:05;101044.13;;;26.14;97.50
7168;BME280;3625;51.762;14.320;2022-08-25T10:04:48;101041.34;;;26.26;97.17
7168;BME280;3625;51.762;14.320;2022-08-25T10:07:26;100938.22;;;25.34;97.69
7168;BME280;3625;51.762;14.320;2022-08-25T10:09:58;101029.81;;;25.53;100.00
7168;BME280;3625;51.762;14.320;2022-08-25T10:12:38;100977.56;;;25.16;100.00
7168;BME280;3625;51.762;14.320;2022-08-25T10:15:20;101024.00;;;25.46;100.00
7168;BME280;3625;51.762;14.320;2022-08-25T10:18:23;101015.53;;;25.51;99.94
7168;BME280;3625;51.762;14.320;2022-08-25T10:21:09;100966.28;;;25.09;100.00
7168;BME280;3625;51.762;14.320;2022-08-25T10:23:44;100959.38;;;25.05;100.00
7168;BME280;3625;51.762;14.320;2022-08-25T10:26:37;101004.78;;;25.26;100.00
7168;BME280;3625;51.762;14.320;2022-08-25T10:29:27;101009.75;;;25.08;100.00
7168;BME280;3625;51.762;14.320;2022-08-25T10:32:05;100915.25;;;24.56;100.00
7168;BME280;3625;51.762;14.320;2022-08-25T10:34:45;101015.41;;;24.92;100.00
7168;BME280;3625;51.762;14.320;2022-08-25T10:37:32;100760.09;;;23.58;100.00
7168;BME280;3625;51.762;14.320;2022-08-25T10:40:18;100999.25;;;25.03;100.00
7168;BME280;3625;51.762;14.320;2022-08-25T10:43:05;100944.38;;;24.89;100.00
7168;BME280;3625;51.762;14.320;2022-08-25T10:45:44;101000.88;;;25.53;98.87
7168;BME280;3625;51.762;14.320;2022-08-25T10:48:50;101002.09;;;25.49;98.35
7168;BME280;3625;51.762;14.320;2022-08-25T10:51:43;101001.81;;;25.65;98.42
7168;BME280;3625;51.762;14.320;2022-08-25T10:54:33;100892.53;;;25.30;96.39
7168;BME280;3625;51.762;14.320;2022-08-25T10:57:20;100996.72;;;25.96;93.93
7168;BME280;3625;51.762;14.320;2022-08-25T10:59:56;101001.16;;;25.85;95.14
7168;BME280;3625;51.762;14.320;2022-08-25T11:03:08;100968.38;;;26.46;94.04
7168;BME280;3625;51.762;14.320;2022-08-25T11:05:48;100994.75;;;26.99;90.93
7168;BME280;3625;51.762;14.320;2022-08-25T11:08:31;100992.34;;;27.28;90.11
7168;BME280;3625;51.762;14.320;2022-08-25T11:11:08;100953.34;;;27.07;86.29
7168;BME280;3625;51.762;14.320;2022-08-25T11:13:46;100970.06;;;27.02;84.51
7168;BME280;3625;51.762;14.320;2022-08-25T11:16:32;100976.72;;;26.87;85.96
7168;BME280;3625;51.762;14.320;2022-08-25T11:19:16;100981.44;;;27.39;84.82
7168;BME280;3625;51.762;14.320;2022-08-25T11:21:51;100961.78;;;27.68;81.95
7168;BME280;3625;51.762;14.320;2022-08-25T11:24:38;100880.59;;;27.22;80.08
7168;BME280;3625;51.762;14.320;2022-08-25T11:27:14;100831.28;;;27.06;82.61
7168;BME280;3625;51.762;14.320;2022-08-25T11:30:03;100918.50;;;27.23;79.46
7168;BME280;3625;51.762;14.320;2022-08-25T11:32:38;100940.13;;;27.57;81.78
7168;BME280;3625;51.762;14.320;2022-08-25T11:35:12;100896.97;;;27.52;77.77
7168;BME280;3625;51.762;14.320;2022-08-25T11:37:59;100867.06;;;27.31;77.45
7168;BME280;3625;51.762;14.320;2022-08-25T11:41:04;100838.22;;;26.87;78.47
7168;BME280;3625;51.762;14.320;2022-08-25T11:43:54;100954.06;;;27.52;79.48
7168;BME280;3625;51.762;14.320;2022-08-25T11:46:49;100824.31;;;26.38;81.75
7168;BME280;3625;51.762;14.320;2022-08-25T11:49:49;100947.88;;;27.29;79.85
7168;BME280;3625;51.762;14.320;2022-08-25T11:52:45;100943.06;;;27.22;81.71
7168;BME280;3625;51.762;14.320;2022-08-25T11:55:22;100862.72;;;26.65;83.26
7168;BME280;3625;51.762;14.320;2022-08-25T11:58:31;100835.16;;;26.26;83.12
7168;BME280;3625;51.762;14.320;2022-08-25T12:01:03;100927.50;;;26.70;85.43
7168;BME280;3625;51.762;14.320;2022-08-25T12:03:51;100926.16;;;26.42;85.69
7168;BME280;3625;51.762;14.320;2022-08-25T12:06:30;100883.25;;;26.36;87.06
7168;BME280;3625;51.762;14.320;2022-08-25T12:09:20;100917.84;;;26.77;86.68
7168;BME280;3625;51.762;14.320;2022-08-25T12:11:58;100923.09;;;26.46;87.51
7168;BME280;3625;51.762;14.320;2022-08-25T12:14:50;100636.38;;;24.81;88.09
7168;BME280;3625;51.762;14.320;2022-08-25T12:17:38;100849.31;;;26.19;87.81
7168;BME280;3625;51.762;14.320;2022-08-25T12:21:12;100920.47;;;26.56;87.16
7168;BME280;3625;51.762;14.320;2022-08-25T12:24:10;100915.06;;;26.34;88.88
7168;BME280;3625;51.762;14.320;2022-08-25T12:26:53;100828.59;;;25.96;88.95
7168;BME280;3625;51.762;14.320;2022-08-25T12:29:31;100918.88;;;26.20;89.96
7168;BME280;3625;51.762;14.320;2022-08-25T12:32:30;100913.34;;;26.33;89.64
7168;BME280;3625;51.762;14.320;2022-08-25T12:35:32;100844.63;;;25.99;89.06
7168;BME280;3625;51.762;14.320;2022-08-25T12:38:25;100916.75;;;26.23;89.55
7168;BME280;3625;51.762;14.320;2022-08-25T12:41:06;100637.22;;;24.70;88.37
7168;BME280;3625;51.762;14.320;2022-08-25T12:43:48;100904.44;;;26.19;89.47
7168;BME280;3625;51.762;14.320;2022-08-25T12:46:36;100904.94;;;26.02;89.38
7168;BME280;3625;51.762;14.320;2022-08-25T12:49:28;100632.72;;;24.47;89.62
7168;BME280;3625;51.762;14.320;2022-08-25T12:52:12;100902.47;;;26.10;89.43
7168;BME280;3625;51.762;14.320;2022-08-25T12:54:52;100734.53;;;24.72;90.04
7168;BME280;3625;51.762;14.320;2022-08-25T12:57:41;100900.09;;;25.83;91.00
7168;BME280;3625;51.762;14.320;2022-08-25T13:00:53;100889.25;;;25.83;90.82
7168;BME280;3625;51.762;14.320;2022-08-25T13:04:06;100649.25;;;24.66;90.22
7168;BME280;3625;51.762;14.320;2022-08-25T13:07:23;100799.28;;;25.21;90.69
7168;BME280;3625;51.762;14.320;2022-08-25T13:10:40;100633.88;;;24.32;89.01
7168;BME280;3625;51.762;14.320;2022-08-25T13:13:21;100598.78;;;24.19;90.37
7168;BME280;3625;51.762;14.320;2022-08-25T13:16:18;100748.19;;;25.05;90.22
7168;BME280;3625;51.762;14.320;2022-08-25T13:19:01;100799.47;;;25.53;89.89
7168;BME280;3625;51.762;14.320;2022-08-25T13:21:45;100896.78;;;26.24;89.64
7168;BME280;3625;51.762;14.320;2022-08-25T13:24:28;100725.94;;;25.24;87.93
7168;BME280;3625;51.762;14.320;2022-08-25T13:27:28;100756.50;;;25.48;88.70
7168;BME280;3625;51.762;14.320;2022-08-25T13:30:23;100787.44;;;25.79;87.90
7168;BME280;3625;51.762;14.320;2022-08-25T13:33:16;100793.66;;;25.35;86.67
7168;BME280;3625;51.762;14.320;2022-08-25T13:35:50;100894.78;;;25.82;88.34
7168;BME280;3625;51.762;14.320;2022-08-25T13:38:48;100726.53;;;25.05;88.14
7168;BME280;3625;51.762;14.320;2022-08-25T13:41:23;100878.31;;;26.18;88.19
7168;BME280;3625;51.762;14.320;2022-08-25T13:44:04;100871.25;;;26.05;87.18
7168;BME280;3625;51.762;14.320;2022-08-25T13:46:41;100868.19;;;26.20;87.30
7168;BME280;3625;51.762;14.320;2022-08-25T13:49:31;100871.38;;;26.25;85.20